sensor_id;sensor_type;location;lat;lon;timestamp;temperature;humidity
52555;DHT22;38455;52.710;6.502;2022-12-05T00:00:30;4.30;99.90
52555;DHT22;38455;52.710;6.502;2022-12-05T00:02:56;4.30;99.90
52555;DHT22;38455;52.710;6.502;2022-12-05T00:05:22;4.30;99.90
52555;DHT22;38455;52.710;6.502;2022-12-05T00:07:47;4.30;99.90
52555;DHT22;38455;52.710;6.502;2022-12-05T00:10:13;4.30;99.90
52555;DHT22;38455;52.710;6.502;2022-12-05T00:12:39;4.30;99.90
52555;DHT22;38455;52.710;6.502;2022-12-05T00:15:05;4.30;99.90
52555;DHT22;38455;52.710;6.502;2022-12-05T00:17:33;4.30;99.90
52555;DHT22;38455;52.710;6.502;2022-12-05T00:19:59;4.30;99.90
52555;DHT22;38455;52.710;6.502;2022-12-05T00:22:25;4.30;99.90
52555;DHT22;38455;52.710;6.502;2022-12-05T00:24:51;4.30;99.90
52555;DHT22;38455;52.710;6.502;2022-12-05T00:27:17;4.40;99.90
52555;DHT22;38455;52.710;6.502;2022-12-05T00:29:42;4.30;99.90
52555;DHT22;38455;52.710;6.502;2022-12-05T00:32:08;4.40;99.90
52555;DHT22;38455;52.710;6.502;2022-12-05T00:34:33;4.40;99.90
52555;DHT22;38455;52.710;6.502;2022-12-05T00:36:59;4.40;99.90
52555;DHT22;38455;52.710;6.502;2022-12-05T00:39:24;4.40;99.90
52555;DHT22;38455;52.710;6.502;2022-12-05T00:41:50;4.40;99.90
52555;DHT22;38455;52.710;6.502;2022-12-05T00:44:16;4.40;99.90
52555;DHT22;38455;52.710;6.502;2022-12-05T00:46:41;4.40;99.90
52555;DHT22;38455;52.710;6.502;2022-12-05T00:49:07;4.40;99.90
52555;DHT22;38455;52.710;6.502;2022-12-05T00:51:36;4.50;99.90
52555;DHT22;38455;52.710;6.502;2022-12-05T00:54:06;4.50;99.90
52555;DHT22;38455;52.710;6.502;2022-12-05T00:56:33;4.50;99.90
52555;DHT22;38455;52.710;6.502;2022-12-05T00:58:59;4.50;99.90
52555;DHT22;38455;52.710;6.502;2022-12-05T01:01:31;4.50;99.90
52555;DHT22;38455;52.710;6.502;2022-12-05T01:03:59;4.50;99.90
52555;DHT22;38455;52.710;6.502;2022-12-05T01:06:26;4.60;99.90
52555;DHT22;38455;52.710;6.502;2022-12-05T01:08:55;4.50;99.90
52555;DHT22;38455;52.710;6.502;2022-12-05T01:11:23;4.60;99.90
52555;DHT22;38455;52.710;6.502;2022-12-05T01:13:49;4.60;99.90
52555;DHT22;38455;52.710;6.502;2022-12-05T01:16:18;4.60;99.90
52555;DHT22;38455;52.710;6.502;2022-12-05T01:18:44;4.60;99.90
52555;DHT22;38455;52.710;6.502;2022-12-05T01:21:10;4.60;99.90
52555;DHT22;38455;52.710;6.502;2022-12-05T01:23:36;4.60;99.90
52555;DHT22;38455;52.710;6.502;2022-12-05T01:26:05;4.60;99.90
52555;DHT22;38455;52.710;6.502;2022-12-05T01:28:31;4.60;99.90
52555;DHT22;38455;52.710;6.502;2022-12-05T01:30:57;4.70;99.90
52555;DHT22;38455;52.710;6.502;2022-12-05T01:33:22;4.60;99.90
52555;DHT22;38455;52.710;6.502;2022-12-05T01:35:48;4.60;99.90
52555;DHT22;38455;52.710;6.502;2022-12-05T01:38:14;4.70;99.90
52555;DHT22;38455;52.710;6.502;2022-12-05T01:40:40;4.70;99.90
52555;DHT22;38455;52.710;6.502;2022-12-05T01:43:14;4.60;99.90
52555;DHT22;38455;52.710;6.502;2022-12-05T01:45:42;4.70;99.90
52555;DHT22;38455;52.710;6.502;2022-12-05T01:48:32;4.70;99.90
52555;DHT22;38455;52.710;6.502;2022-12-05T01:50:59;4.60;99.90
52555;DHT22;38455;52.710;6.502;2022-12-05T01:53:26;4.60;99.90
52555;DHT22;38455;52.710;6.502;2022-12-05T01:55:53;4.60;99.90
52555;DHT22;38455;52.710;6.502;2022-12-05T01:58:19;4.70;99.90
52555;DHT22;38455;52.710;6.502;2022-12-05T02:00:46;4.60;99.90
52555;DHT22;38455;52.710;6.502;2022-12-05T02:03:17;4.60;99.90
52555;DHT22;38455;52.710;6.502;2022-12-05T02:05:47;4.70;99.90
52555;DHT22;38455;52.710;6.502;2022-12-05T02:08:14;4.70;99.90
52555;DHT22;38455;52.710;6.502;2022-12-05T02:10:52;4.60;99.90
52555;DHT22;38455;52.710;6.502;2022-12-05T02:13:38;4.60;99.90
52555;DHT22;38455;52.710;6.502;2022-12-05T02:28:00;4.70;99.90
52555;DHT22;38455;52.710;6.502;2022-12-05T02:31:35;4.70;99.90
52555;DHT22;38455;52.710;6.502;2022-12-05T02:34:05;4.70;99.90
52555;DHT22;38455;52.710;6.502;2022-12-05T02:36:51;4.70;99.90
52555;DHT22;38455;52.710;6.502;2022-12-05T02:39:23;4.70;99.90
52555;DHT22;38455;52.710;6.502;2022-12-05T02:41:58;4.70;99.90
52555;DHT22;38455;52.710;6.502;2022-12-05T02:44:39;4.70;99.90
52555;DHT22;38455;52.710;6.502;2022-12-05T02:47:07;4.80;99.90
52555;DHT22;38455;52.710;6.502;2022-12-05T02:49:35;4.80;99.90
52555;DHT22;38455;52.710;6.502;2022-12-05T02:52:04;4.80;99.90
52555;DHT22;38455;52.710;6.502;2022-12-05T02:54:35;4.80;99.90
52555;DHT22;38455;52.710;6.502;2022-12-05T02:57:01;4.80;99.90
52555;DHT22;38455;52.710;6.502;2022-12-05T02:59:28;4.80;99.90
52555;DHT22;38455;52.710;6.502;2022-12-05T03:01:53;4.80;99.90
52555;DHT22;38455;52.710;6.502;2022-12-05T03:04:21;4.80;99.90
52555;DHT22;38455;52.710;6.502;2022-12-05T03:06:52;4.80;99.90
52555;DHT22;38455;52.710;6.502;2022-12-05T03:09:20;4.80;99.90
52555;DHT22;38455;52.710;6.502;2022-12-05T03:12:03;4.90;99.90
52555;DHT22;38455;52.710;6.502;2022-12-05T03:14:37;4.80;99.90
52555;DHT22;38455;52.710;6.502;2022-12-05T03:17:07;4.90;99.90
52555;DHT22;38455;52.710;6.502;2022-12-05T03:20:05;4.90;99.90
52555;DHT22;38455;52.710;6.502;2022-12-05T03:22:50;4.90;99.90
52555;DHT22;38455;52.710;6.502;2022-12-05T03:25:22;4.90;99.90
52555;DHT22;38455;52.710;6.502;2022-12-05T03:27:53;4.90;99.90
52555;DHT22;38455;52.710;6.502;2022-12-05T03:30:24;4.90;99.90
52555;DHT22;38455;52.710;6.502;2022-12-05T03:38:14;5.00;99.90
52555;DHT22;38455;52.710;6.502;2022-12-05T03:40:48;5.00;99.90
52555;DHT22;38455;52.710;6.502;2022-12-05T03:46:33;5.00;99.90
52555;DHT22;38455;52.710;6.502;2022-12-05T03:49:36;5.00;99.90
52555;DHT22;38455;52.710;6.502;2022-12-05T03:52:21;5.00;99.90
52555;DHT22;38455;52.710;6.502;2022-12-05T03:54:52;5.10;99.90
52555;DHT22;38455;52.710;6.502;2022-12-05T03:57:28;5.00;99.90
52555;DHT22;38455;52.710;6.502;2022-12-05T04:00:09;5.00;99.90
52555;DHT22;38455;52.710;6.502;2022-12-05T04:02:45;5.10;99.90
52555;DHT22;38455;52.710;6.502;2022-12-05T04:08:20;5.10;99.90
52555;DHT22;38455;52.710;6.502;2022-12-05T04:10:49;5.10;99.90
52555;DHT22;38455;52.710;6.502;2022-12-05T04:13:39;5.10;99.90
52555;DHT22;38455;52.710;6.502;2022-12-05T04:16:11;5.20;99.90
52555;DHT22;38455;52.710;6.502;2022-12-05T04:19:02;5.20;99.90
52555;DHT22;38455;52.710;6.502;2022-12-05T04:21:39;5.20;99.90
52555;DHT22;38455;52.710;6.502;2022-12-05T04:24:16;5.20;99.90
52555;DHT22;38455;52.710;6.502;2022-12-05T04:27:11;5.20;99.90
52555;DHT22;38455;52.710;6.502;2022-12-05T04:30:12;5.20;99.90
52555;DHT22;38455;52.710;6.502;2022-12-05T04:33:02;5.20;99.90
52555;DHT22;38455;52.710;6.502;2022-12-05T04:35:53;5.20;99.90
52555;DHT22;38455;52.710;6.502;2022-12-05T04:41:10;5.20;99.90
52555;DHT22;38455;52.710;6.502;2022-12-05T04:43:40;5.20;99.90
52555;DHT22;38455;52.710;6.502;2022-12-05T04:46:08;5.30;99.90
52555;DHT22;38455;52.710;6.502;2022-12-05T04:48:37;5.30;99.90
52555;DHT22;38455;52.710;6.502;2022-12-05T04:51:07;5.30;99.90
52555;DHT22;38455;52.710;6.502;2022-12-05T04:53:34;5.30;99.90
52555;DHT22;38455;52.710;6.502;2022-12-05T04:56:02;5.30;99.90
52555;DHT22;38455;52.710;6.502;2022-12-05T04:58:29;5.30;99.90
52555;DHT22;38455;52.710;6.502;2022-12-05T05:01:09;5.30;99.90
52555;DHT22;38455;52.710;6.502;2022-12-05T05:03:40;5.30;99.90
52555;DHT22;38455;52.710;6.502;2022-12-05T05:06:08;5.30;99.90
52555;DHT22;38455;52.710;6.502;2022-12-05T05:08:34;5.30;99.90
52555;DHT22;38455;52.710;6.502;2022-12-05T05:11:11;5.30;99.90
52555;DHT22;38455;52.710;6.502;2022-12-05T05:13:37;5.30;99.90
52555;DHT22;38455;52.710;6.502;2022-12-05T05:16:03;5.30;99.90
52555;DHT22;38455;52.710;6.502;2022-12-05T05:18:29;5.30;99.90
52555;DHT22;38455;52.710;6.502;2022-12-05T05:20:55;5.30;99.90
52555;DHT22;38455;52.710;6.502;2022-12-05T05:23:20;5.30;99.90
52555;DHT22;38455;52.710;6.502;2022-12-05T05:25:52;5.30;99.90
52555;DHT22;38455;52.710;6.502;2022-12-05T05:28:17;5.30;99.90
52555;DHT22;38455;52.710;6.502;2022-12-05T05:30:43;5.40;99.90
52555;DHT22;38455;52.710;6.502;2022-12-05T05:33:08;5.50;99.90
52555;DHT22;38455;52.710;6.502;2022-12-05T05:35:37;5.30;99.90
52555;DHT22;38455;52.710;6.502;2022-12-05T05:38:03;5.40;99.90
52555;DHT22;38455;52.710;6.502;2022-12-05T05:40:29;5.40;99.90
52555;DHT22;38455;52.710;6.502;2022-12-05T05:42:55;5.40;99.90
52555;DHT22;38455;52.710;6.502;2022-12-05T05:45:20;5.50;99.90
52555;DHT22;38455;52.710;6.502;2022-12-05T05:47:49;5.40;99.90
52555;DHT22;38455;52.710;6.502;2022-12-05T05:50:15;5.40;99.90
52555;DHT22;38455;52.710;6.502;2022-12-05T05:52:41;5.40;99.90
52555;DHT22;38455;52.710;6.502;2022-12-05T05:55:07;5.40;99.90
52555;DHT22;38455;52.710;6.502;2022-12-05T05:57:34;5.40;99.90
52555;DHT22;38455;52.710;6.502;2022-12-05T06:00:00;5.40;99.90
52555;DHT22;38455;52.710;6.502;2022-12-05T06:02:31;5.40;99.90
52555;DHT22;38455;52.710;6.502;2022-12-05T06:04:57;5.40;99.90
52555;DHT22;38455;52.710;6.502;2022-12-05T06:07:22;5.40;99.90
52555;DHT22;38455;52.710;6.502;2022-12-05T06:09:48;5.40;99.90
52555;DHT22;38455;52.710;6.502;2022-12-05T06:12:13;5.40;99.90
52555;DHT22;38455;52.710;6.502;2022-12-05T06:14:39;5.40;99.90
52555;DHT22;38455;52.710;6.502;2022-12-05T06:17:04;5.50;99.90
52555;DHT22;38455;52.710;6.502;2022-12-05T06:19:33;5.50;99.90
52555;DHT22;38455;52.710;6.502;2022-12-05T06:21:59;5.50;99.90
52555;DHT22;38455;52.710;6.502;2022-12-05T06:24:24;5.40;99.90
52555;DHT22;38455;52.710;6.502;2022-12-05T06:26:50;5.50;99.90
52555;DHT22;38455;52.710;6.502;2022-12-05T06:29:15;5.50;99.90
52555;DHT22;38455;52.710;6.502;2022-12-05T06:31:41;5.50;99.90
52555;DHT22;38455;52.710;6.502;2022-12-05T06:34:07;5.50;99.90
52555;DHT22;38455;52.710;6.502;2022-12-05T06:36:32;5.50;99.90
52555;DHT22;38455;52.710;6.502;2022-12-05T06:38:59;5.50;99.90
52555;DHT22;38455;52.710;6.502;2022-12-05T06:41:25;5.50;99.90
52555;DHT22;38455;52.710;6.502;2022-12-05T06:43:55;5.50;99.90
52555;DHT22;38455;52.710;6.502;2022-12-05T06:46:23;5.60;99.90
52555;DHT22;38455;52.710;6.502;2022-12-05T06:48:52;5.50;99.90
52555;DHT22;38455;52.710;6.502;2022-12-05T06:51:18;5.60;99.90
52555;DHT22;38455;52.710;6.502;2022-12-05T06:53:44;5.60;99.90
52555;DHT22;38455;52.710;6.502;2022-12-05T06:56:14;5.60;99.90
52555;DHT22;38455;52.710;6.502;2022-12-05T06:58:40;5.60;99.90
52555;DHT22;38455;52.710;6.502;2022-12-05T07:01:16;5.60;99.90
52555;DHT22;38455;52.710;6.502;2022-12-05T07:04:01;5.60;99.90
52555;DHT22;38455;52.710;6.502;2022-12-05T07:06:27;5.60;99.90
52555;DHT22;38455;52.710;6.502;2022-12-05T07:08:52;5.60;99.90
52555;DHT22;38455;52.710;6.502;2022-12-05T07:11:18;5.60;99.90
52555;DHT22;38455;52.710;6.502;2022-12-05T07:13:44;5.60;99.90
52555;DHT22;38455;52.710;6.502;2022-12-05T07:16:09;5.60;99.90
52555;DHT22;38455;52.710;6.502;2022-12-05T07:18:35;5.50;99.90
52555;DHT22;38455;52.710;6.502;2022-12-05T07:21:06;5.50;99.90
52555;DHT22;38455;52.710;6.502;2022-12-05T07:23:32;5.50;99.90
52555;DHT22;38455;52.710;6.502;2022-12-05T07:26:02;5.50;99.90
52555;DHT22;38455;52.710;6.502;2022-12-05T07:28:28;5.50;99.90
52555;DHT22;38455;52.710;6.502;2022-12-05T07:31:01;5.50;99.90
52555;DHT22;38455;52.710;6.502;2022-12-05T07:33:28;5.50;99.90
52555;DHT22;38455;52.710;6.502;2022-12-05T07:36:01;5.50;99.90
52555;DHT22;38455;52.710;6.502;2022-12-05T07:38:27;5.50;99.90
52555;DHT22;38455;52.710;6.502;2022-12-05T07:40:52;5.50;99.90
52555;DHT22;38455;52.710;6.502;2022-12-05T07:43:18;5.50;99.90
52555;DHT22;38455;52.710;6.502;2022-12-05T07:45:44;5.50;99.90
52555;DHT22;38455;52.710;6.502;2022-12-05T07:48:09;5.50;99.90
52555;DHT22;38455;52.710;6.502;2022-12-05T07:50:35;5.50;99.90
52555;DHT22;38455;52.710;6.502;2022-12-05T07:53:01;5.60;99.90
52555;DHT22;38455;52.710;6.502;2022-12-05T07:55:27;5.60;99.90
52555;DHT22;38455;52.710;6.502;2022-12-05T07:57:52;5.60;99.90
52555;DHT22;38455;52.710;6.502;2022-12-05T08:00:18;5.60;99.90
52555;DHT22;38455;52.710;6.502;2022-12-05T08:02:44;5.60;99.90
52555;DHT22;38455;52.710;6.502;2022-12-05T08:05:10;5.60;99.90
52555;DHT22;38455;52.710;6.502;2022-12-05T08:07:35;5.60;99.90
52555;DHT22;38455;52.710;6.502;2022-12-05T08:10:01;5.60;99.90
52555;DHT22;38455;52.710;6.502;2022-12-05T08:12:26;5.60;99.90
52555;DHT22;38455;52.710;6.502;2022-12-05T08:14:52;5.70;99.90
52555;DHT22;38455;52.710;6.502;2022-12-05T08:17:18;5.70;99.90
52555;DHT22;38455;52.710;6.502;2022-12-05T08:19:43;5.70;99.90
52555;DHT22;38455;52.710;6.502;2022-12-05T08:22:09;5.60;99.90
52555;DHT22;38455;52.710;6.502;2022-12-05T08:24:35;5.70;99.90
52555;DHT22;38455;52.710;6.502;2022-12-05T08:27:00;5.60;99.90
52555;DHT22;38455;52.710;6.502;2022-12-05T08:29:26;5.70;99.90
52555;DHT22;38455;52.710;6.502;2022-12-05T08:31:52;5.70;99.90
52555;DHT22;38455;52.710;6.502;2022-12-05T08:34:19;5.70;99.90
52555;DHT22;38455;52.710;6.502;2022-12-05T08:36:45;5.70;99.90
52555;DHT22;38455;52.710;6.502;2022-12-05T08:39:12;5.70;99.90
52555;DHT22;38455;52.710;6.502;2022-12-05T08:41:44;5.70;99.90
52555;DHT22;38455;52.710;6.502;2022-12-05T08:44:11;5.80;99.90
52555;DHT22;38455;52.710;6.502;2022-12-05T08:46:41;5.80;99.90
52555;DHT22;38455;52.710;6.502;2022-12-05T08:49:07;5.80;99.90
52555;DHT22;38455;52.710;6.502;2022-12-05T08:51:33;5.80;99.90
52555;DHT22;38455;52.710;6.502;2022-12-05T08:54:01;5.80;99.90
52555;DHT22;38455;52.710;6.502;2022-12-05T08:56:27;5.80;99.90
52555;DHT22;38455;52.710;6.502;2022-12-05T08:58:53;5.80;99.90
52555;DHT22;38455;52.710;6.502;2022-12-05T09:01:20;5.90;99.90
52555;DHT22;38455;52.710;6.502;2022-12-05T09:03:46;5.90;99.90
52555;DHT22;38455;52.710;6.502;2022-12-05T09:06:17;5.90;99.90
52555;DHT22;38455;52.710;6.502;2022-12-05T09:08:43;5.80;99.90
52555;DHT22;38455;52.710;6.502;2022-12-05T09:11:15;5.80;99.90
52555;DHT22;38455;52.710;6.502;2022-12-05T09:13:41;5.80;99.90
52555;DHT22;38455;52.710;6.502;2022-12-05T09:16:12;5.80;99.90
52555;DHT22;38455;52.710;6.502;2022-12-05T09:18:38;5.80;99.90
52555;DHT22;38455;52.710;6.502;2022-12-05T09:21:05;5.80;99.90
52555;DHT22;38455;52.710;6.502;2022-12-05T09:23:31;5.80;99.90
52555;DHT22;38455;52.710;6.502;2022-12-05T09:25:57;5.80;99.90
52555;DHT22;38455;52.710;6.502;2022-12-05T09:28:26;5.90;99.90
52555;DHT22;38455;52.710;6.502;2022-12-05T09:30:59;5.80;99.90
52555;DHT22;38455;52.710;6.502;2022-12-05T09:33:27;5.80;99.90
52555;DHT22;38455;52.710;6.502;2022-12-05T09:35:53;5.80;99.90
52555;DHT22;38455;52.710;6.502;2022-12-05T09:38:18;5.80;99.90
52555;DHT22;38455;52.710;6.502;2022-12-05T09:40:44;5.80;99.90
52555;DHT22;38455;52.710;6.502;2022-12-05T09:43:25;5.80;99.90
52555;DHT22;38455;52.710;6.502;2022-12-05T09:46:07;5.80;99.90
52555;DHT22;38455;52.710;6.502;2022-12-05T09:48:38;5.80;99.90
52555;DHT22;38455;52.710;6.502;2022-12-05T09:51:08;5.80;99.90
52555;DHT22;38455;52.710;6.502;2022-12-05T09:53:37;5.80;99.90
52555;DHT22;38455;52.710;6.502;2022-12-05T09:58:49;5.80;99.90
52555;DHT22;38455;52.710;6.502;2022-12-05T10:10:02;5.70;99.90
52555;DHT22;38455;52.710;6.502;2022-12-05T10:15:32;5.70;99.90
52555;DHT22;38455;52.710;6.502;2022-12-05T10:20:38;5.70;99.90
52555;DHT22;38455;52.710;6.502;2022-12-05T10:23:37;5.70;99.90
52555;DHT22;38455;52.710;6.502;2022-12-05T10:26:02;5.70;99.90
52555;DHT22;38455;52.710;6.502;2022-12-05T10:28:34;5.70;99.90
52555;DHT22;38455;52.710;6.502;2022-12-05T10:31:04;5.70;99.90
52555;DHT22;38455;52.710;6.502;2022-12-05T10:33:36;5.70;99.90
52555;DHT22;38455;52.710;6.502;2022-12-05T10:36:09;5.70;99.90
52555;DHT22;38455;52.710;6.502;2022-12-05T10:38:35;5.70;99.90
52555;DHT22;38455;52.710;6.502;2022-12-05T10:41:05;5.70;99.90
52555;DHT22;38455;52.710;6.502;2022-12-05T10:43:33;5.70;99.90
52555;DHT22;38455;52.710;6.502;2022-12-05T10:46:00;5.70;99.90
52555;DHT22;38455;52.710;6.502;2022-12-05T10:48:26;5.70;99.90
52555;DHT22;38455;52.710;6.502;2022-12-05T10:50:56;5.70;99.90
52555;DHT22;38455;52.710;6.502;2022-12-05T10:53:24;5.70;99.90
52555;DHT22;38455;52.710;6.502;2022-12-05T10:55:51;5.70;99.90
52555;DHT22;38455;52.710;6.502;2022-12-05T10:58:24;5.70;99.90
52555;DHT22;38455;52.710;6.502;2022-12-05T11:00:53;5.70;99.90
52555;DHT22;38455;52.710;6.502;2022-12-05T11:03:30;5.60;99.90
52555;DHT22;38455;52.710;6.502;2022-12-05T11:06:00;5.70;99.90
52555;DHT22;38455;52.710;6.502;2022-12-05T11:08:29;5.70;99.90
52555;DHT22;38455;52.710;6.502;2022-12-05T11:11:06;5.70;99.90
52555;DHT22;38455;52.710;6.502;2022-12-05T11:13:33;5.70;99.90
52555;DHT22;38455;52.710;6.502;2022-12-05T11:15:59;5.60;99.90
52555;DHT22;38455;52.710;6.502;2022-12-05T11:18:26;5.70;99.90
52555;DHT22;38455;52.710;6.502;2022-12-05T11:20:53;5.60;99.90
52555;DHT22;38455;52.710;6.502;2022-12-05T11:23:25;5.60;99.90
52555;DHT22;38455;52.710;6.502;2022-12-05T11:25:52;5.70;99.90
52555;DHT22;38455;52.710;6.502;2022-12-05T11:33:36;5.70;99.90
52555;DHT22;38455;52.710;6.502;2022-12-05T11:38:40;5.60;99.90
52555;DHT22;38455;52.710;6.502;2022-12-05T11:55:23;5.70;99.90
52555;DHT22;38455;52.710;6.502;2022-12-05T12:07:12;5.70;99.90
52555;DHT22;38455;52.710;6.502;2022-12-05T12:15:34;5.70;99.90
52555;DHT22;38455;52.710;6.502;2022-12-05T12:20:43;5.70;99.90
52555;DHT22;38455;52.710;6.502;2022-12-05T12:23:33;5.70;99.90
52555;DHT22;38455;52.710;6.502;2022-12-05T12:26:19;5.70;99.90
52555;DHT22;38455;52.710;6.502;2022-12-05T12:34:28;5.70;99.90
52555;DHT22;38455;52.710;6.502;2022-12-05T12:39:49;5.70;99.90
52555;DHT22;38455;52.710;6.502;2022-12-05T12:42:24;5.70;99.90
52555;DHT22;38455;52.710;6.502;2022-12-05T12:45:13;5.70;99.90
52555;DHT22;38455;52.710;6.502;2022-12-05T12:50:24;5.70;99.90
52555;DHT22;38455;52.710;6.502;2022-12-05T12:58:46;5.80;99.90
52555;DHT22;38455;52.710;6.502;2022-12-05T13:04:35;5.80;99.90
52555;DHT22;38455;52.710;6.502;2022-12-05T13:07:07;5.80;99.90
52555;DHT22;38455;52.710;6.502;2022-12-05T13:09:37;5.80;99.90
52555;DHT22;38455;52.710;6.502;2022-12-05T13:12:07;5.80;99.90
52555;DHT22;38455;52.710;6.502;2022-12-05T13:14:36;5.80;99.90
52555;DHT22;38455;52.710;6.502;2022-12-05T13:17:04;5.80;99.90
52555;DHT22;38455;52.710;6.502;2022-12-05T13:19:41;5.80;99.90
52555;DHT22;38455;52.710;6.502;2022-12-05T13:22:09;5.80;99.90
52555;DHT22;38455;52.710;6.502;2022-12-05T13:24:35;5.80;99.90
52555;DHT22;38455;52.710;6.502;2022-12-05T13:27:05;5.70;99.90
52555;DHT22;38455;52.710;6.502;2022-12-05T13:32:35;5.70;99.90
52555;DHT22;38455;52.710;6.502;2022-12-05T13:35:29;5.70;99.90
52555;DHT22;38455;52.710;6.502;2022-12-05T13:41:05;5.70;99.90
52555;DHT22;38455;52.710;6.502;2022-12-05T13:43:52;5.70;99.90
52555;DHT22;38455;52.710;6.502;2022-12-05T13:46:25;5.70;99.90
52555;DHT22;38455;52.710;6.502;2022-12-05T13:49:02;5.70;99.90
52555;DHT22;38455;52.710;6.502;2022-12-05T13:51:33;5.70;99.90
52555;DHT22;38455;52.710;6.502;2022-12-05T13:54:18;5.70;99.90
52555;DHT22;38455;52.710;6.502;2022-12-05T13:57:02;5.70;99.90
52555;DHT22;38455;52.710;6.502;2022-12-05T13:59:58;5.70;99.90
52555;DHT22;38455;52.710;6.502;2022-12-05T14:07:53;5.70;99.90
52555;DHT22;38455;52.710;6.502;2022-12-05T14:12:55;5.70;99.90
52555;DHT22;38455;52.710;6.502;2022-12-05T14:15:34;5.70;99.90
52555;DHT22;38455;52.710;6.502;2022-12-05T14:21:41;5.70;99.90
52555;DHT22;38455;52.710;6.502;2022-12-05T14:27:19;5.70;99.90
52555;DHT22;38455;52.710;6.502;2022-12-05T14:32:28;5.70;99.90
52555;DHT22;38455;52.710;6.502;2022-12-05T14:35:18;5.70;99.90
52555;DHT22;38455;52.710;6.502;2022-12-05T14:38:05;5.70;99.90
52555;DHT22;38455;52.710;6.502;2022-12-05T14:40:38;5.70;99.90
52555;DHT22;38455;52.710;6.502;2022-12-05T14:50:43;5.70;99.90
52555;DHT22;38455;52.710;6.502;2022-12-05T14:58:36;5.70;99.90
52555;DHT22;38455;52.710;6.502;2022-12-05T15:01:26;5.70;99.90
52555;DHT22;38455;52.710;6.502;2022-12-05T15:04:09;5.70;99.90
52555;DHT22;38455;52.710;6.502;2022-12-05T15:06:57;5.70;99.90
52555;DHT22;38455;52.710;6.502;2022-12-05T15:09:30;5.70;99.90
52555;DHT22;38455;52.710;6.502;2022-12-05T15:12:00;5.70;99.90
52555;DHT22;38455;52.710;6.502;2022-12-05T15:14:26;5.70;99.90
52555;DHT22;38455;52.710;6.502;2022-12-05T15:16:54;5.70;99.90
52555;DHT22;38455;52.710;6.502;2022-12-05T15:19:28;5.70;99.90
52555;DHT22;38455;52.710;6.502;2022-12-05T15:21:56;5.70;99.90
52555;DHT22;38455;52.710;6.502;2022-12-05T15:24:23;5.70;99.90
52555;DHT22;38455;52.710;6.502;2022-12-05T15:26:54;5.70;99.90
52555;DHT22;38455;52.710;6.502;2022-12-05T15:34:59;5.70;99.90
52555;DHT22;38455;52.710;6.502;2022-12-05T15:40:14;5.70;99.90
52555;DHT22;38455;52.710;6.502;2022-12-05T15:42:47;5.70;99.90
52555;DHT22;38455;52.710;6.502;2022-12-05T15:47:50;5.70;99.90
52555;DHT22;38455;52.710;6.502;2022-12-05T15:50:39;5.70;99.90
52555;DHT22;38455;52.710;6.502;2022-12-05T15:53:18;5.70;99.90
52555;DHT22;38455;52.710;6.502;2022-12-05T15:58:31;5.70;99.90
52555;DHT22;38455;52.710;6.502;2022-12-05T16:09:12;5.70;99.90
52555;DHT22;38455;52.710;6.502;2022-12-05T16:11:39;5.70;99.90
52555;DHT22;38455;52.710;6.502;2022-12-05T16:14:14;5.70;99.90
52555;DHT22;38455;52.710;6.502;2022-12-05T16:16:40;5.70;99.90
52555;DHT22;38455;52.710;6.502;2022-12-05T16:19:20;5.70;99.90
52555;DHT22;38455;52.710;6.502;2022-12-05T16:21:59;5.70;99.90
52555;DHT22;38455;52.710;6.502;2022-12-05T16:24:28;5.60;99.90
52555;DHT22;38455;52.710;6.502;2022-12-05T16:29:31;5.70;99.90
52555;DHT22;38455;52.710;6.502;2022-12-05T16:32:02;5.70;99.90
52555;DHT22;38455;52.710;6.502;2022-12-05T16:34:31;5.70;99.90
52555;DHT22;38455;52.710;6.502;2022-12-05T16:36:57;5.60;99.90
52555;DHT22;38455;52.710;6.502;2022-12-05T16:39:25;5.70;99.90
52555;DHT22;38455;52.710;6.502;2022-12-05T16:41:52;5.70;99.90
52555;DHT22;38455;52.710;6.502;2022-12-05T16:46:54;5.70;99.90
52555;DHT22;38455;52.710;6.502;2022-12-05T16:49:35;5.70;99.90
52555;DHT22;38455;52.710;6.502;2022-12-05T16:54:32;5.70;99.90
52555;DHT22;38455;52.710;6.502;2022-12-05T16:56:59;5.70;99.90
52555;DHT22;38455;52.710;6.502;2022-12-05T16:59:34;5.60;99.90
52555;DHT22;38455;52.710;6.502;2022-12-05T17:02:00;5.70;99.90
52555;DHT22;38455;52.710;6.502;2022-12-05T17:04:27;5.70;99.90
52555;DHT22;38455;52.710;6.502;2022-12-05T17:06:52;5.70;99.90
52555;DHT22;38455;52.710;6.502;2022-12-05T17:09:18;5.60;99.90
52555;DHT22;38455;52.710;6.502;2022-12-05T17:11:45;5.70;99.90
52555;DHT22;38455;52.710;6.502;2022-12-05T17:14:15;5.60;99.90
52555;DHT22;38455;52.710;6.502;2022-12-05T17:16:42;5.60;99.90
52555;DHT22;38455;52.710;6.502;2022-12-05T17:19:11;5.60;99.90
52555;DHT22;38455;52.710;6.502;2022-12-05T17:21:38;5.60;99.90
52555;DHT22;38455;52.710;6.502;2022-12-05T17:24:08;5.60;99.90
52555;DHT22;38455;52.710;6.502;2022-12-05T17:26:37;5.60;99.90
52555;DHT22;38455;52.710;6.502;2022-12-05T17:29:03;5.70;99.90
52555;DHT22;38455;52.710;6.502;2022-12-05T17:31:29;5.60;99.90
52555;DHT22;38455;52.710;6.502;2022-12-05T17:33:55;5.60;99.90
52555;DHT22;38455;52.710;6.502;2022-12-05T17:36:21;5.70;99.90
52555;DHT22;38455;52.710;6.502;2022-12-05T17:38:48;5.60;99.90
52555;DHT22;38455;52.710;6.502;2022-12-05T17:41:19;5.60;99.90
52555;DHT22;38455;52.710;6.502;2022-12-05T17:43:46;5.60;99.90
52555;DHT22;38455;52.710;6.502;2022-12-05T17:46:17;5.60;99.90
52555;DHT22;38455;52.710;6.502;2022-12-05T17:48:44;5.60;99.90
52555;DHT22;38455;52.710;6.502;2022-12-05T17:51:09;5.60;99.90
52555;DHT22;38455;52.710;6.502;2022-12-05T17:53:39;5.60;99.90
52555;DHT22;38455;52.710;6.502;2022-12-05T17:56:06;5.60;99.90
52555;DHT22;38455;52.710;6.502;2022-12-05T17:58:32;5.60;99.90
52555;DHT22;38455;52.710;6.502;2022-12-05T18:00:57;5.60;99.90
52555;DHT22;38455;52.710;6.502;2022-12-05T18:03:23;5.60;99.90
52555;DHT22;38455;52.710;6.502;2022-12-05T18:05:49;5.60;99.90
52555;DHT22;38455;52.710;6.502;2022-12-05T18:08:15;5.60;99.90
52555;DHT22;38455;52.710;6.502;2022-12-05T18:10:42;5.50;99.90
52555;DHT22;38455;52.710;6.502;2022-12-05T18:13:09;5.50;99.90
52555;DHT22;38455;52.710;6.502;2022-12-05T18:15:35;5.50;99.90
52555;DHT22;38455;52.710;6.502;2022-12-05T18:18:01;5.60;99.90
52555;DHT22;38455;52.710;6.502;2022-12-05T18:20:28;5.50;99.90
52555;DHT22;38455;52.710;6.502;2022-12-05T18:22:54;5.50;99.90
52555;DHT22;38455;52.710;6.502;2022-12-05T18:25:20;5.50;99.90
52555;DHT22;38455;52.710;6.502;2022-12-05T18:27:45;5.50;99.90
52555;DHT22;38455;52.710;6.502;2022-12-05T18:30:11;5.50;99.90
52555;DHT22;38455;52.710;6.502;2022-12-05T18:32:37;5.50;99.90
52555;DHT22;38455;52.710;6.502;2022-12-05T18:35:03;5.50;99.90
52555;DHT22;38455;52.710;6.502;2022-12-05T18:37:34;5.50;99.90
52555;DHT22;38455;52.710;6.502;2022-12-05T18:40:00;5.50;99.90
52555;DHT22;38455;52.710;6.502;2022-12-05T18:42:26;5.50;99.90
52555;DHT22;38455;52.710;6.502;2022-12-05T18:44:52;5.50;99.90
52555;DHT22;38455;52.710;6.502;2022-12-05T18:47:18;5.50;99.90
52555;DHT22;38455;52.710;6.502;2022-12-05T18:49:45;5.50;99.90
52555;DHT22;38455;52.710;6.502;2022-12-05T18:52:10;5.50;99.90